Archival Weather

NSFA McMurdo Sound

NSFA McMurdo Sound, Antarctica (NZCM)

Report from: Friday, September 23, 2022 11:27 AM UTC
Current time: Sunday, December 4, 2022 11:53 AM UTC

Current weather
Weather history
Weather forecast

Present weatherHaze
Temperature-20.1°C (-4.2°F)
Wind chill-32.6°C (-26.7°F)
Dew point-24.5°C (-12.1°F)
Winds 16 kts (8.2 m/s, 18.4 mph) East-Northeast (60°)
Wind gusts 27 kts (13.9 m/s, 31.1 mph)
Peak wind 28 kts (14.4 m/s, 32.2 mph) East-Northeast (70°) at 05:58
Visibility1.1 mi. (1.8 km)
Clouds Ceiling: Overcast 2,000 ft. (610 m)
Altimeter28.63 in.Hg (970 mB)
Precip. events Snow began 11:01 AM
Snow ended 11:27 AM
Relative humidity68 %
Density altitude-2,931 ft. (-893 m)
Sea-level pressure107.0 kPa (1070 mB, 31.60 in.Hg)
Remarks Fully automated report
System requires maintenance
Special weather observation
Automated weather observing station with precipitation discriminator
Flight conditions Instrument Meteorological Conditions
Raw dataSPECI NZCM 231127Z AUTO 06016G27KT 1800 HZ OVC020 M20/M25 A2863 RMK AO2 PK WND 07028/1058 SNB1101E1127 SLP702 T12011245 $
An error has occurred. This application may no longer respond until reloaded. Reload 🗙